sensor_id;sensor_type;location;lat;lon;timestamp;P1;durP1;ratioP1;P2;durP2;ratioP2
59038;SDS011;44824;43.376;19.630;2023-04-02T00:01:38;18.65;;;12.20;;
59038;SDS011;44824;43.376;19.630;2023-04-02T00:04:38;20.63;;;13.02;;
59038;SDS011;44824;43.376;19.630;2023-04-02T00:07:19;16.60;;;11.85;;
59038;SDS011;44824;43.376;19.630;2023-04-02T00:16:37;16.88;;;10.88;;
59038;SDS011;44824;43.376;19.630;2023-04-02T00:19:05;31.42;;;15.43;;
59038;SDS011;44824;43.376;19.630;2023-04-02T00:21:37;30.25;;;15.93;;
59038;SDS011;44824;43.376;19.630;2023-04-02T00:26:59;18.90;;;11.43;;
59038;SDS011;44824;43.376;19.630;2023-04-02T00:29:28;18.90;;;10.95;;
59038;SDS011;44824;43.376;19.630;2023-04-02T00:35:46;22.30;;;12.45;;
59038;SDS011;44824;43.376;19.630;2023-04-02T00:38:26;72.55;;;41.90;;
59038;SDS011;44824;43.376;19.630;2023-04-02T00:41:38;33.58;;;19.50;;
59038;SDS011;44824;43.376;19.630;2023-04-02T00:44:26;21.27;;;9.88;;
59038;SDS011;44824;43.376;19.630;2023-04-02T00:53:03;25.33;;;17.65;;
59038;SDS011;44824;43.376;19.630;2023-04-02T00:55:58;14.70;;;8.15;;
59038;SDS011;44824;43.376;19.630;2023-04-02T00:58:38;16.58;;;9.25;;
59038;SDS011;44824;43.376;19.630;2023-04-02T01:04:34;14.10;;;8.77;;
59038;SDS011;44824;43.376;19.630;2023-04-02T01:16:03;17.05;;;8.10;;
59038;SDS011;44824;43.376;19.630;2023-04-02T01:27:34;16.88;;;10.27;;
59038;SDS011;44824;43.376;19.630;2023-04-02T01:30:30;14.83;;;8.87;;
59038;SDS011;44824;43.376;19.630;2023-04-02T01:45:16;18.02;;;8.82;;
59038;SDS011;44824;43.376;19.630;2023-04-02T01:51:28;18.95;;;10.60;;
59038;SDS011;44824;43.376;19.630;2023-04-02T01:54:33;18.98;;;10.50;;
59038;SDS011;44824;43.376;19.630;2023-04-02T01:57:32;12.63;;;7.80;;
59038;SDS011;44824;43.376;19.630;2023-04-02T02:03:17;13.18;;;7.20;;
59038;SDS011;44824;43.376;19.630;2023-04-02T02:06:16;12.30;;;7.03;;
59038;SDS011;44824;43.376;19.630;2023-04-02T02:09:24;11.40;;;6.65;;
59038;SDS011;44824;43.376;19.630;2023-04-02T02:12:12;16.30;;;7.72;;
59038;SDS011;44824;43.376;19.630;2023-04-02T02:18:42;17.27;;;9.50;;
59038;SDS011;44824;43.376;19.630;2023-04-02T02:42:50;18.08;;;10.23;;
59038;SDS011;44824;43.376;19.630;2023-04-02T02:46:04;15.10;;;9.85;;
59038;SDS011;44824;43.376;19.630;2023-04-02T02:55:44;12.63;;;7.68;;
59038;SDS011;44824;43.376;19.630;2023-04-02T02:58:32;14.23;;;8.15;;
59038;SDS011;44824;43.376;19.630;2023-04-02T03:01:43;14.15;;;8.70;;
59038;SDS011;44824;43.376;19.630;2023-04-02T03:04:28;14.35;;;7.55;;
59038;SDS011;44824;43.376;19.630;2023-04-02T03:07:26;12.98;;;7.70;;
59038;SDS011;44824;43.376;19.630;2023-04-02T03:13:45;12.77;;;7.85;;
59038;SDS011;44824;43.376;19.630;2023-04-02T03:29:26;14.07;;;7.50;;
59038;SDS011;44824;43.376;19.630;2023-04-02T03:42:54;13.40;;;7.35;;
59038;SDS011;44824;43.376;19.630;2023-04-02T06:36:10;25.05;;;14.43;;
59038;SDS011;44824;43.376;19.630;2023-04-02T07:06:52;24.60;;;15.75;;
59038;SDS011;44824;43.376;19.630;2023-04-02T07:19:35;26.58;;;17.58;;
59038;SDS011;44824;43.376;19.630;2023-04-02T07:22:05;25.40;;;16.33;;
59038;SDS011;44824;43.376;19.630;2023-04-02T07:24:31;25.30;;;14.75;;
59038;SDS011;44824;43.376;19.630;2023-04-02T07:27:35;19.45;;;14.38;;
59038;SDS011;44824;43.376;19.630;2023-04-02T07:30:01;30.00;;;23.65;;
59038;SDS011;44824;43.376;19.630;2023-04-02T07:32:29;23.60;;;16.23;;
59038;SDS011;44824;43.376;19.630;2023-04-02T07:35:06;30.05;;;19.58;;
59038;SDS011;44824;43.376;19.630;2023-04-02T07:37:32;35.72;;;22.58;;
59038;SDS011;44824;43.376;19.630;2023-04-02T07:39:58;26.17;;;17.60;;
59038;SDS011;44824;43.376;19.630;2023-04-02T07:42:25;27.27;;;16.60;;
59038;SDS011;44824;43.376;19.630;2023-04-02T07:44:51;22.20;;;15.98;;
59038;SDS011;44824;43.376;19.630;2023-04-02T07:47:20;23.48;;;14.73;;
59038;SDS011;44824;43.376;19.630;2023-04-02T07:52:49;32.33;;;25.52;;
59038;SDS011;44824;43.376;19.630;2023-04-02T07:55:15;15.23;;;10.13;;
59038;SDS011;44824;43.376;19.630;2023-04-02T07:57:52;15.82;;;11.10;;
59038;SDS011;44824;43.376;19.630;2023-04-02T08:00:18;14.65;;;10.25;;
59038;SDS011;44824;43.376;19.630;2023-04-02T08:02:45;17.40;;;12.60;;
59038;SDS011;44824;43.376;19.630;2023-04-02T08:05:12;12.93;;;8.48;;
59038;SDS011;44824;43.376;19.630;2023-04-02T08:07:53;11.05;;;7.13;;
59038;SDS011;44824;43.376;19.630;2023-04-02T08:10:20;11.27;;;7.32;;
59038;SDS011;44824;43.376;19.630;2023-04-02T08:13:07;11.20;;;6.80;;
59038;SDS011;44824;43.376;19.630;2023-04-02T08:15:33;11.05;;;7.40;;
59038;SDS011;44824;43.376;19.630;2023-04-02T08:17:59;11.68;;;6.50;;
59038;SDS011;44824;43.376;19.630;2023-04-02T08:20:44;9.48;;;6.43;;
59038;SDS011;44824;43.376;19.630;2023-04-02T08:23:13;18.30;;;12.93;;
59038;SDS011;44824;43.376;19.630;2023-04-02T08:25:41;15.40;;;10.80;;
59038;SDS011;44824;43.376;19.630;2023-04-02T08:28:10;14.48;;;9.68;;
59038;SDS011;44824;43.376;19.630;2023-04-02T08:30:36;14.52;;;10.55;;
59038;SDS011;44824;43.376;19.630;2023-04-02T08:33:02;17.65;;;10.10;;
59038;SDS011;44824;43.376;19.630;2023-04-02T08:38:29;13.73;;;8.57;;
59038;SDS011;44824;43.376;19.630;2023-04-02T08:40:55;12.83;;;8.93;;
59038;SDS011;44824;43.376;19.630;2023-04-02T08:43:58;14.00;;;9.05;;
59038;SDS011;44824;43.376;19.630;2023-04-02T08:48:42;12.73;;;8.32;;
59038;SDS011;44824;43.376;19.630;2023-04-02T08:51:17;12.07;;;8.07;;
59038;SDS011;44824;43.376;19.630;2023-04-02T08:56:33;10.77;;;7.20;;
59038;SDS011;44824;43.376;19.630;2023-04-02T08:59:02;9.07;;;6.05;;
59038;SDS011;44824;43.376;19.630;2023-04-02T09:01:35;8.00;;;4.45;;
59038;SDS011;44824;43.376;19.630;2023-04-02T09:04:06;9.80;;;6.00;;
59038;SDS011;44824;43.376;19.630;2023-04-02T09:06:55;8.88;;;5.40;;
59038;SDS011;44824;43.376;19.630;2023-04-02T09:09:24;10.70;;;5.90;;
59038;SDS011;44824;43.376;19.630;2023-04-02T09:14:18;8.45;;;4.95;;
59038;SDS011;44824;43.376;19.630;2023-04-02T09:16:47;8.60;;;4.05;;
59038;SDS011;44824;43.376;19.630;2023-04-02T09:19:15;8.10;;;3.65;;
59038;SDS011;44824;43.376;19.630;2023-04-02T09:22:04;7.60;;;3.78;;
59038;SDS011;44824;43.376;19.630;2023-04-02T09:24:30;7.60;;;3.80;;
59038;SDS011;44824;43.376;19.630;2023-04-02T09:26:57;6.18;;;2.90;;
59038;SDS011;44824;43.376;19.630;2023-04-02T09:38:25;7.60;;;3.80;;
59038;SDS011;44824;43.376;19.630;2023-04-02T09:41:00;15.15;;;6.90;;
59038;SDS011;44824;43.376;19.630;2023-04-02T09:54:16;9.93;;;6.10;;
59038;SDS011;44824;43.376;19.630;2023-04-02T09:59:28;9.10;;;5.93;;
59038;SDS011;44824;43.376;19.630;2023-04-02T10:02:16;6.55;;;3.42;;
59038;SDS011;44824;43.376;19.630;2023-04-02T10:05:01;7.10;;;3.15;;
59038;SDS011;44824;43.376;19.630;2023-04-02T10:13:48;54.15;;;46.97;;
59038;SDS011;44824;43.376;19.630;2023-04-02T10:16:24;7.95;;;4.65;;
59038;SDS011;44824;43.376;19.630;2023-04-02T10:25:14;89.05;;;79.22;;
59038;SDS011;44824;43.376;19.630;2023-04-02T10:27:58;10.93;;;7.82;;
59038;SDS011;44824;43.376;19.630;2023-04-02T10:34:02;10.52;;;7.13;;
59038;SDS011;44824;43.376;19.630;2023-04-02T10:41:27;8.45;;;4.78;;
59038;SDS011;44824;43.376;19.630;2023-04-02T10:52:14;6.25;;;2.65;;
59038;SDS011;44824;43.376;19.630;2023-04-02T10:59:55;8.30;;;4.25;;
59038;SDS011;44824;43.376;19.630;2023-04-02T11:02:25;9.65;;;5.63;;
59038;SDS011;44824;43.376;19.630;2023-04-02T11:04:53;6.22;;;3.17;;
59038;SDS011;44824;43.376;19.630;2023-04-02T11:07:23;8.07;;;4.32;;
59038;SDS011;44824;43.376;19.630;2023-04-02T11:09:51;8.02;;;3.88;;
59038;SDS011;44824;43.376;19.630;2023-04-02T11:14:44;8.90;;;5.53;;
59038;SDS011;44824;43.376;19.630;2023-04-02T11:17:10;3.90;;;1.13;;
59038;SDS011;44824;43.376;19.630;2023-04-02T11:19:48;5.15;;;2.10;;
59038;SDS011;44824;43.376;19.630;2023-04-02T11:25:21;4.38;;;1.40;;
59038;SDS011;44824;43.376;19.630;2023-04-02T11:27:48;5.82;;;2.03;;
59038;SDS011;44824;43.376;19.630;2023-04-02T11:32:43;7.00;;;3.25;;
59038;SDS011;44824;43.376;19.630;2023-04-02T11:37:57;13.40;;;8.35;;
59038;SDS011;44824;43.376;19.630;2023-04-02T11:40:40;7.50;;;3.47;;
59038;SDS011;44824;43.376;19.630;2023-04-02T11:45:56;4.20;;;1.30;;
59038;SDS011;44824;43.376;19.630;2023-04-02T11:48:30;5.60;;;1.67;;
59038;SDS011;44824;43.376;19.630;2023-04-02T11:50:58;4.90;;;1.42;;
59038;SDS011;44824;43.376;19.630;2023-04-02T11:53:34;1.45;;;0.60;;
59038;SDS011;44824;43.376;19.630;2023-04-02T11:59:05;3.67;;;1.20;;
59038;SDS011;44824;43.376;19.630;2023-04-02T12:10:47;12.32;;;5.38;;
59038;SDS011;44824;43.376;19.630;2023-04-02T12:13:18;3.90;;;1.40;;
59038;SDS011;44824;43.376;19.630;2023-04-02T12:15:46;5.15;;;2.00;;
59038;SDS011;44824;43.376;19.630;2023-04-02T12:20:39;7.57;;;2.90;;
59038;SDS011;44824;43.376;19.630;2023-04-02T12:31:44;5.50;;;1.90;;
59038;SDS011;44824;43.376;19.630;2023-04-02T12:34:15;4.47;;;1.40;;
59038;SDS011;44824;43.376;19.630;2023-04-02T12:39:20;5.35;;;1.60;;
59038;SDS011;44824;43.376;19.630;2023-04-02T12:41:46;5.88;;;2.15;;
59038;SDS011;44824;43.376;19.630;2023-04-02T12:46:42;5.40;;;1.50;;
59038;SDS011;44824;43.376;19.630;2023-04-02T12:54:29;5.28;;;2.10;;
59038;SDS011;44824;43.376;19.630;2023-04-02T12:57:18;5.43;;;2.20;;
59038;SDS011;44824;43.376;19.630;2023-04-02T12:59:44;4.22;;;1.30;;
59038;SDS011;44824;43.376;19.630;2023-04-02T13:02:18;7.22;;;1.67;;
59038;SDS011;44824;43.376;19.630;2023-04-02T13:04:51;4.65;;;1.67;;
59038;SDS011;44824;43.376;19.630;2023-04-02T13:07:18;5.07;;;1.33;;
59038;SDS011;44824;43.376;19.630;2023-04-02T13:09:49;3.63;;;1.17;;
59038;SDS011;44824;43.376;19.630;2023-04-02T13:14:54;3.90;;;1.40;;
59038;SDS011;44824;43.376;19.630;2023-04-02T13:17:37;3.47;;;1.00;;
59038;SDS011;44824;43.376;19.630;2023-04-02T13:22:48;2.22;;;0.60;;
59038;SDS011;44824;43.376;19.630;2023-04-02T13:25:17;7.82;;;1.30;;
59038;SDS011;44824;43.376;19.630;2023-04-02T13:27:44;4.35;;;0.77;;
59038;SDS011;44824;43.376;19.630;2023-04-02T13:30:26;3.00;;;1.05;;
59038;SDS011;44824;43.376;19.630;2023-04-02T13:32:57;2.47;;;0.60;;
59038;SDS011;44824;43.376;19.630;2023-04-02T13:35:23;5.57;;;1.10;;
59038;SDS011;44824;43.376;19.630;2023-04-02T13:37:50;4.43;;;1.40;;
59038;SDS011;44824;43.376;19.630;2023-04-02T13:40:17;5.15;;;1.77;;
59038;SDS011;44824;43.376;19.630;2023-04-02T13:42:44;4.13;;;1.08;;
59038;SDS011;44824;43.376;19.630;2023-04-02T13:45:20;3.95;;;1.20;;
59038;SDS011;44824;43.376;19.630;2023-04-02T13:47:48;2.65;;;0.77;;
59038;SDS011;44824;43.376;19.630;2023-04-02T13:50:18;2.47;;;0.70;;
59038;SDS011;44824;43.376;19.630;2023-04-02T13:52:57;6.30;;;2.50;;
59038;SDS011;44824;43.376;19.630;2023-04-02T13:55:25;4.97;;;1.38;;
59038;SDS011;44824;43.376;19.630;2023-04-02T13:57:53;3.70;;;1.10;;
59038;SDS011;44824;43.376;19.630;2023-04-02T14:00:22;5.55;;;2.00;;
59038;SDS011;44824;43.376;19.630;2023-04-02T14:02:50;6.18;;;2.20;;
59038;SDS011;44824;43.376;19.630;2023-04-02T14:16:01;3.95;;;1.40;;
59038;SDS011;44824;43.376;19.630;2023-04-02T14:18:35;6.05;;;2.20;;
59038;SDS011;44824;43.376;19.630;2023-04-02T14:21:13;4.45;;;1.20;;
59038;SDS011;44824;43.376;19.630;2023-04-02T14:23:48;4.63;;;1.80;;
59038;SDS011;44824;43.376;19.630;2023-04-02T14:51:21;5.60;;;2.35;;
59038;SDS011;44824;43.376;19.630;2023-04-02T14:58:48;3.80;;;1.20;;
59038;SDS011;44824;43.376;19.630;2023-04-02T15:01:20;4.90;;;0.90;;
59038;SDS011;44824;43.376;19.630;2023-04-02T15:04:04;5.95;;;1.30;;
59038;SDS011;44824;43.376;19.630;2023-04-02T15:06:34;5.40;;;1.10;;
59038;SDS011;44824;43.376;19.630;2023-04-02T15:09:19;3.65;;;1.05;;
59038;SDS011;44824;43.376;19.630;2023-04-02T15:11:49;3.38;;;0.80;;
59038;SDS011;44824;43.376;19.630;2023-04-02T15:14:40;3.35;;;1.10;;
59038;SDS011;44824;43.376;19.630;2023-04-02T15:17:27;4.15;;;1.10;;
59038;SDS011;44824;43.376;19.630;2023-04-02T15:22:52;5.28;;;1.67;;
59038;SDS011;44824;43.376;19.630;2023-04-02T15:28:12;6.57;;;2.40;;
59038;SDS011;44824;43.376;19.630;2023-04-02T15:30:42;5.93;;;2.00;;
59038;SDS011;44824;43.376;19.630;2023-04-02T15:38:58;5.57;;;2.28;;
59038;SDS011;44824;43.376;19.630;2023-04-02T15:42:27;7.25;;;1.95;;
59038;SDS011;44824;43.376;19.630;2023-04-02T15:44:21;5.43;;;1.92;;
59038;SDS011;44824;43.376;19.630;2023-04-02T15:52:07;5.68;;;1.80;;
59038;SDS011;44824;43.376;19.630;2023-04-02T15:57:13;8.82;;;4.15;;
59038;SDS011;44824;43.376;19.630;2023-04-02T15:59:55;7.80;;;3.53;;
59038;SDS011;44824;43.376;19.630;2023-04-02T16:10:38;10.38;;;4.38;;
59038;SDS011;44824;43.376;19.630;2023-04-02T16:15:43;5.78;;;1.80;;
59038;SDS011;44824;43.376;19.630;2023-04-02T16:18:15;17.98;;;7.53;;
59038;SDS011;44824;43.376;19.630;2023-04-02T16:20:46;14.93;;;7.88;;
59038;SDS011;44824;43.376;19.630;2023-04-02T16:23:14;14.48;;;8.55;;
59038;SDS011;44824;43.376;19.630;2023-04-02T16:28:41;10.00;;;5.68;;
59038;SDS011;44824;43.376;19.630;2023-04-02T16:31:10;6.97;;;3.03;;
59038;SDS011;44824;43.376;19.630;2023-04-02T16:34:03;7.60;;;3.50;;
59038;SDS011;44824;43.376;19.630;2023-04-02T16:36:38;10.57;;;4.82;;
59038;SDS011;44824;43.376;19.630;2023-04-02T16:39:21;16.30;;;8.65;;
59038;SDS011;44824;43.376;19.630;2023-04-02T16:49:32;17.10;;;8.18;;
59038;SDS011;44824;43.376;19.630;2023-04-02T16:52:13;11.88;;;5.85;;
59038;SDS011;44824;43.376;19.630;2023-04-02T16:54:54;8.82;;;3.80;;
59038;SDS011;44824;43.376;19.630;2023-04-02T17:08:24;10.57;;;5.25;;
59038;SDS011;44824;43.376;19.630;2023-04-02T17:18:58;10.10;;;3.20;;
59038;SDS011;44824;43.376;19.630;2023-04-02T17:21:26;9.25;;;4.47;;
59038;SDS011;44824;43.376;19.630;2023-04-02T17:26:19;12.02;;;5.80;;
59038;SDS011;44824;43.376;19.630;2023-04-02T17:28:46;13.15;;;5.82;;
59038;SDS011;44824;43.376;19.630;2023-04-02T17:31:14;11.80;;;5.00;;
59038;SDS011;44824;43.376;19.630;2023-04-02T17:33:41;10.60;;;4.97;;
59038;SDS011;44824;43.376;19.630;2023-04-02T17:44:43;19.08;;;9.98;;
59038;SDS011;44824;43.376;19.630;2023-04-02T17:58:32;16.20;;;8.55;;
59038;SDS011;44824;43.376;19.630;2023-04-02T18:04:03;19.30;;;9.70;;
59038;SDS011;44824;43.376;19.630;2023-04-02T18:09:45;11.35;;;6.03;;
59038;SDS011;44824;43.376;19.630;2023-04-02T18:12:16;14.35;;;8.98;;
59038;SDS011;44824;43.376;19.630;2023-04-02T18:20:02;14.52;;;5.85;;
59038;SDS011;44824;43.376;19.630;2023-04-02T18:25:29;14.90;;;7.10;;
59038;SDS011;44824;43.376;19.630;2023-04-02T18:30:34;23.83;;;13.43;;
59038;SDS011;44824;43.376;19.630;2023-04-02T18:33:07;14.63;;;7.85;;
59038;SDS011;44824;43.376;19.630;2023-04-02T18:35:46;24.45;;;14.98;;
59038;SDS011;44824;43.376;19.630;2023-04-02T18:51:40;10.68;;;5.30;;
59038;SDS011;44824;43.376;19.630;2023-04-02T18:54:24;11.13;;;6.90;;
59038;SDS011;44824;43.376;19.630;2023-04-02T18:56:56;9.23;;;3.80;;
59038;SDS011;44824;43.376;19.630;2023-04-02T19:04:55;7.25;;;3.28;;
59038;SDS011;44824;43.376;19.630;2023-04-02T19:07:22;8.95;;;3.60;;
59038;SDS011;44824;43.376;19.630;2023-04-02T19:10:05;7.13;;;3.15;;
59038;SDS011;44824;43.376;19.630;2023-04-02T19:12:34;7.95;;;3.40;;
59038;SDS011;44824;43.376;19.630;2023-04-02T19:15:00;7.38;;;3.47;;
59038;SDS011;44824;43.376;19.630;2023-04-02T19:17:31;6.18;;;2.75;;
59038;SDS011;44824;43.376;19.630;2023-04-02T19:31:10;9.52;;;4.93;;
59038;SDS011;44824;43.376;19.630;2023-04-02T19:44:54;7.80;;;3.30;;
59038;SDS011;44824;43.376;19.630;2023-04-02T19:47:27;8.32;;;2.92;;
59038;SDS011;44824;43.376;19.630;2023-04-02T19:49:53;11.23;;;4.10;;
59038;SDS011;44824;43.376;19.630;2023-04-02T19:52:22;10.30;;;5.07;;
59038;SDS011;44824;43.376;19.630;2023-04-02T19:54:57;10.30;;;5.57;;
59038;SDS011;44824;43.376;19.630;2023-04-02T19:57:23;10.57;;;5.47;;
59038;SDS011;44824;43.376;19.630;2023-04-02T19:59:52;17.92;;;12.32;;
59038;SDS011;44824;43.376;19.630;2023-04-02T20:02:18;13.77;;;7.88;;
59038;SDS011;44824;43.376;19.630;2023-04-02T20:04:44;15.88;;;10.35;;
59038;SDS011;44824;43.376;19.630;2023-04-02T20:07:10;19.42;;;11.43;;
59038;SDS011;44824;43.376;19.630;2023-04-02T20:09:39;13.63;;;7.72;;
59038;SDS011;44824;43.376;19.630;2023-04-02T20:12:05;16.67;;;9.10;;
59038;SDS011;44824;43.376;19.630;2023-04-02T20:14:31;16.60;;;9.13;;
59038;SDS011;44824;43.376;19.630;2023-04-02T20:16:57;18.55;;;11.02;;
59038;SDS011;44824;43.376;19.630;2023-04-02T20:19:32;18.10;;;10.70;;
59038;SDS011;44824;43.376;19.630;2023-04-02T20:21:59;14.25;;;8.35;;
59038;SDS011;44824;43.376;19.630;2023-04-02T20:24:25;16.63;;;10.27;;
59038;SDS011;44824;43.376;19.630;2023-04-02T20:27:00;18.73;;;12.02;;
59038;SDS011;44824;43.376;19.630;2023-04-02T20:29:29;17.40;;;9.15;;
59038;SDS011;44824;43.376;19.630;2023-04-02T20:31:58;39.28;;;21.90;;
59038;SDS011;44824;43.376;19.630;2023-04-02T20:34:24;25.13;;;14.25;;
59038;SDS011;44824;43.376;19.630;2023-04-02T20:36:53;16.63;;;10.23;;
59038;SDS011;44824;43.376;19.630;2023-04-02T20:39:19;26.77;;;18.08;;
59038;SDS011;44824;43.376;19.630;2023-04-02T20:41:46;24.98;;;15.15;;
59038;SDS011;44824;43.376;19.630;2023-04-02T20:44:12;25.93;;;14.90;;
59038;SDS011;44824;43.376;19.630;2023-04-02T20:46:38;22.83;;;14.57;;
59038;SDS011;44824;43.376;19.630;2023-04-02T20:49:11;24.45;;;14.60;;
59038;SDS011;44824;43.376;19.630;2023-04-02T20:51:56;22.73;;;12.48;;
59038;SDS011;44824;43.376;19.630;2023-04-02T20:57:35;21.38;;;10.93;;
59038;SDS011;44824;43.376;19.630;2023-04-02T21:00:05;19.55;;;11.63;;
59038;SDS011;44824;43.376;19.630;2023-04-02T21:02:32;23.25;;;12.68;;
59038;SDS011;44824;43.376;19.630;2023-04-02T21:05:01;24.47;;;13.90;;
59038;SDS011;44824;43.376;19.630;2023-04-02T21:07:28;22.60;;;12.73;;
59038;SDS011;44824;43.376;19.630;2023-04-02T21:10:03;22.55;;;13.18;;
59038;SDS011;44824;43.376;19.630;2023-04-02T21:12:33;21.23;;;11.75;;
59038;SDS011;44824;43.376;19.630;2023-04-02T21:14:59;17.50;;;11.50;;
59038;SDS011;44824;43.376;19.630;2023-04-02T21:17:25;23.73;;;12.90;;
59038;SDS011;44824;43.376;19.630;2023-04-02T21:22:27;39.28;;;21.58;;
59038;SDS011;44824;43.376;19.630;2023-04-02T21:25:05;38.65;;;21.90;;
59038;SDS011;44824;43.376;19.630;2023-04-02T21:27:34;36.13;;;20.65;;
59038;SDS011;44824;43.376;19.630;2023-04-02T21:30:00;38.42;;;21.52;;
59038;SDS011;44824;43.376;19.630;2023-04-02T21:32:26;33.83;;;20.05;;
59038;SDS011;44824;43.376;19.630;2023-04-02T21:34:58;28.38;;;17.20;;
59038;SDS011;44824;43.376;19.630;2023-04-02T21:37:24;26.60;;;15.82;;
59038;SDS011;44824;43.376;19.630;2023-04-02T21:45:43;33.47;;;19.52;;
59038;SDS011;44824;43.376;19.630;2023-04-02T21:48:19;34.40;;;20.23;;
59038;SDS011;44824;43.376;19.630;2023-04-02T21:50:45;27.98;;;17.77;;
59038;SDS011;44824;43.376;19.630;2023-04-02T21:53:14;30.05;;;17.38;;
59038;SDS011;44824;43.376;19.630;2023-04-02T21:58:18;41.97;;;24.00;;
59038;SDS011;44824;43.376;19.630;2023-04-02T22:03:29;43.42;;;25.10;;
59038;SDS011;44824;43.376;19.630;2023-04-02T22:05:59;52.20;;;30.08;;
59038;SDS011;44824;43.376;19.630;2023-04-02T22:11:16;49.40;;;28.58;;
59038;SDS011;44824;43.376;19.630;2023-04-02T22:13:44;50.83;;;28.27;;
59038;SDS011;44824;43.376;19.630;2023-04-02T22:16:18;46.72;;;27.80;;
59038;SDS011;44824;43.376;19.630;2023-04-02T22:18:51;42.28;;;25.27;;
59038;SDS011;44824;43.376;19.630;2023-04-02T22:21:18;39.25;;;22.83;;
59038;SDS011;44824;43.376;19.630;2023-04-02T22:23:44;34.60;;;21.30;;
59038;SDS011;44824;43.376;19.630;2023-04-02T22:26:14;26.67;;;15.75;;
59038;SDS011;44824;43.376;19.630;2023-04-02T22:28:41;29.30;;;16.15;;
59038;SDS011;44824;43.376;19.630;2023-04-02T22:31:11;30.57;;;19.07;;
59038;SDS011;44824;43.376;19.630;2023-04-02T22:33:41;29.63;;;16.85;;
59038;SDS011;44824;43.376;19.630;2023-04-02T22:36:07;30.05;;;18.35;;
59038;SDS011;44824;43.376;19.630;2023-04-02T22:38:33;32.60;;;18.95;;
59038;SDS011;44824;43.376;19.630;2023-04-02T22:43:45;32.20;;;18.67;;
59038;SDS011;44824;43.376;19.630;2023-04-02T22:46:14;32.53;;;19.83;;
59038;SDS011;44824;43.376;19.630;2023-04-02T22:48:40;35.60;;;19.52;;
59038;SDS011;44824;43.376;19.630;2023-04-02T22:51:11;31.77;;;18.87;;
59038;SDS011;44824;43.376;19.630;2023-04-02T22:53:37;26.10;;;15.60;;
59038;SDS011;44824;43.376;19.630;2023-04-02T22:56:21;25.37;;;13.97;;
59038;SDS011;44824;43.376;19.630;2023-04-02T22:58:51;24.80;;;14.73;;
59038;SDS011;44824;43.376;19.630;2023-04-02T23:01:19;24.75;;;14.23;;
59038;SDS011;44824;43.376;19.630;2023-04-02T23:03:45;25.05;;;14.63;;
59038;SDS011;44824;43.376;19.630;2023-04-02T23:06:12;26.02;;;15.38;;
59038;SDS011;44824;43.376;19.630;2023-04-02T23:08:38;24.38;;;14.77;;
59038;SDS011;44824;43.376;19.630;2023-04-02T23:14:03;17.00;;;9.52;;
59038;SDS011;44824;43.376;19.630;2023-04-02T23:16:29;18.07;;;8.63;;
59038;SDS011;44824;43.376;19.630;2023-04-02T23:19:01;18.15;;;10.38;;
59038;SDS011;44824;43.376;19.630;2023-04-02T23:21:27;19.48;;;11.35;;
59038;SDS011;44824;43.376;19.630;2023-04-02T23:23:53;16.17;;;9.95;;
59038;SDS011;44824;43.376;19.630;2023-04-02T23:26:25;23.15;;;13.13;;
59038;SDS011;44824;43.376;19.630;2023-04-02T23:28:53;21.00;;;12.68;;
59038;SDS011;44824;43.376;19.630;2023-04-02T23:31:20;22.15;;;12.23;;
59038;SDS011;44824;43.376;19.630;2023-04-02T23:33:46;21.83;;;13.20;;
59038;SDS011;44824;43.376;19.630;2023-04-02T23:36:13;21.52;;;13.02;;
59038;SDS011;44824;43.376;19.630;2023-04-02T23:38:47;24.58;;;12.88;;
59038;SDS011;44824;43.376;19.630;2023-04-02T23:41:13;22.13;;;12.88;;
59038;SDS011;44824;43.376;19.630;2023-04-02T23:43:51;22.42;;;12.25;;
59038;SDS011;44824;43.376;19.630;2023-04-02T23:46:18;18.38;;;11.00;;
59038;SDS011;44824;43.376;19.630;2023-04-02T23:48:45;20.17;;;11.50;;
59038;SDS011;44824;43.376;19.630;2023-04-02T23:51:11;20.52;;;10.77;;
59038;SDS011;44824;43.376;19.630;2023-04-02T23:53:38;20.23;;;11.17;;
59038;SDS011;44824;43.376;19.630;2023-04-02T23:56:10;19.15;;;9.85;;
59038;SDS011;44824;43.376;19.630;2023-04-02T23:58:36;19.48;;;9.23;;
